Terminal Aerodrome Forecast
Issued by NWS Greer, SC

Home | Current Version | Previous Version | Text Only | Print | Product List | Glossary On
Versions: 1 2 3 4 5 6 7 8 9 10 11 12 13 14 15 16 17 18 19 20 21 22 23 24 25 26 27 28 29 30 31 32 33 34 35 36 37 38 39 40 41
000
FTUS42 KGSP 220537
TAFCLT
TAF
KCLT 220537Z 2206/2306 05007KT P6SM -RADZ OVC030
     FM220800 04008KT 6SM -RADZ BR OVC015
      TEMPO 2208/2212 5SM -RADZ BR OVC007
     FM221200 04008KT 5SM -DZ BR OVC006
     FM221700 03007KT 6SM BR OVC008
     FM230300 04006KT 4SM -DZ BR OVC006=

USA.gov is the U.S. government's official web portal to all federal, state and local government web resources and services.